Time;durP1;ratioP1;P1;durP2;ratioP2;P2;SDS_P1;SDS_P2;PMS_P1;PMS_P2;Temp;Humidity;BMP_temperature;BMP_pressure;BME280_temperature;BME280_humidity;BME280_pressure;Samples;Min_cycle;Max_cycle;Signal;HPM_P1;HPM_P2
2021/03/21 00:01:27;;;;;;;3.00;2.90;;;;;;;5.15;76.56;102066.72;5344413;26;20038;-68
2021/03/21 00:03:53;;;;;;;2.85;2.75;;;;;;;5.07;76.84;102072.00;5342127;26;20042;-68
2021/03/21 00:06:19;;;;;;;2.50;2.40;;;;;;;4.20;77.76;101943.41;5343695;26;20727;-68
2021/03/21 00:08:44;;;;;;;3.30;3.10;;;;;;;4.99;77.41;102068.56;5343618;26;20054;-68
2021/03/21 00:11:10;;;;;;;2.50;2.40;;;;;;;4.99;77.68;102071.16;5343040;26;20511;-68
2021/03/21 00:13:35;;;;;;;2.55;2.45;;;;;;;4.90;77.92;102071.25;5343200;26;20048;-68
2021/03/21 00:16:01;;;;;;;2.30;2.20;;;;;;;4.91;77.92;102062.53;5342473;26;20595;-68
2021/03/21 00:18:31;;;;;;;2.40;2.30;;;;;;;4.94;78.28;102075.53;5343667;26;20072;-68
2021/03/21 00:20:57;;;;;;;2.50;2.40;;;;;;;4.98;78.42;102085.06;5344367;26;20471;-68
2021/03/21 00:23:22;;;;;;;3.17;2.55;;;;;;;4.90;78.37;102072.09;5343794;26;20046;-68
2021/03/21 00:25:47;;;;;;;2.60;2.50;;;;;;;4.86;78.79;102067.78;5344350;26;20054;-68
2021/03/21 00:28:14;;;;;;;2.72;2.62;;;;;;;4.78;78.65;102054.81;5344300;26;20045;-68
2021/03/21 00:30:42;;;;;;;2.45;2.35;;;;;;;4.90;79.32;102069.50;5342389;26;20441;-69
2021/03/21 00:33:09;;;;;;;2.50;2.40;;;;;;;4.68;80.15;102052.31;5343906;26;20039;-68
2021/03/21 00:35:35;;;;;;;2.50;2.40;;;;;;;4.79;80.30;102068.69;5342629;26;20042;-68
2021/03/21 00:38:02;;;;;;;2.40;2.30;;;;;;;4.74;80.61;102065.25;5342947;26;20061;-68
2021/03/21 00:40:28;;;;;;;3.55;3.35;;;;;;;4.79;80.58;102061.78;5342123;26;20052;-68
2021/03/21 00:42:54;;;;;;;2.53;2.42;;;;;;;4.77;80.59;102073.91;5342350;26;20039;-68
2021/03/21 00:45:20;;;;;;;2.47;2.37;;;;;;;4.72;81.30;102067.87;5344022;26;20042;-68
2021/03/21 00:47:45;;;;;;;2.35;2.25;;;;;;;4.73;81.14;102068.72;5342836;26;20050;-68
2021/03/21 00:50:15;;;;;;;2.53;2.42;;;;;;;4.60;81.71;102052.34;5343170;26;20591;-68
2021/03/21 00:52:40;;;;;;;2.47;2.37;;;;;;;4.66;81.90;102060.09;5343584;26;20053;-68
2021/03/21 00:55:06;;;;;;;2.50;2.40;;;;;;;4.53;82.11;102042.84;5344037;26;20408;-69
2021/03/21 00:57:31;;;;;;;3.15;2.95;;;;;;;4.63;82.61;102078.34;5341401;26;20065;-68
2021/03/21 00:59:56;;;;;;;2.70;2.60;;;;;;;4.57;82.70;102079.22;5344559;26;20038;-68
2021/03/21 01:02:22;;;;;;;3.22;3.12;;;;;;;4.67;82.57;102067.03;5344084;26;20046;-68
2021/03/21 01:04:48;;;;;;;2.78;2.67;;;;;;;4.55;83.28;102074.88;5343509;26;20603;-68
2021/03/21 01:07:13;;;;;;;2.40;2.30;;;;;;;4.55;83.63;102064.47;5343669;26;20056;-68
2021/03/21 01:09:38;;;;;;;2.40;2.30;;;;;;;4.13;83.52;101998.84;5345043;26;20106;-68
2021/03/21 01:12:04;;;;;;;2.40;2.30;;;;;;;4.60;83.44;102062.75;5343378;26;20473;-68
2021/03/21 01:14:30;;;;;;;2.55;2.45;;;;;;;4.52;84.05;102059.31;5344703;26;20118;-69
2021/03/21 01:16:55;;;;;;;3.15;3.05;;;;;;;4.43;83.64;102039.44;5343842;26;20042;-69
2021/03/21 01:19:20;;;;;;;2.50;2.40;;;;;;;4.46;84.04;102043.75;5343201;26;20042;-68
2021/03/21 01:21:46;;;;;;;2.50;2.40;;;;;;;4.55;84.16;102054.09;5345033;26;20039;-68
2021/03/21 01:24:12;;;;;;;2.30;2.20;;;;;;;4.53;83.82;102035.03;5342793;26;20129;-68
2021/03/21 01:26:38;;;;;;;2.50;2.40;;;;;;;4.20;82.99;101977.19;5343698;26;20106;-68
2021/03/21 01:29:03;;;;;;;2.55;2.45;;;;;;;4.45;84.04;102021.22;5343365;26;20038;-68
2021/03/21 01:31:28;;;;;;;2.70;2.60;;;;;;;4.47;84.35;102009.06;5342894;26;20464;-69
2021/03/21 01:33:54;;;;;;;2.50;2.40;;;;;;;4.40;84.80;102009.13;5342721;26;20034;-69
2021/03/21 01:36:24;;;;;;;2.80;2.70;;;;;;;4.43;84.77;102008.25;5344704;26;20038;-69
2021/03/21 01:38:54;;;;;;;2.87;2.78;;;;;;;4.39;84.73;102017.81;5342792;26;20031;-69
2021/03/21 01:41:23;;;;;;;2.33;2.22;;;;;;;4.40;84.97;101997.84;5343577;26;20035;-68
2021/03/21 01:43:48;;;;;;;2.65;2.55;;;;;;;4.40;84.55;102009.13;5361258;26;20366;-68
2021/03/21 01:46:26;;;;;;;2.35;2.25;;;;;;;4.31;84.60;101978.00;5343635;26;20121;-68
2021/03/21 01:48:54;;;;;;;2.85;2.75;;;;;;;4.31;84.78;101972.78;5344745;26;20052;-68
2021/03/21 01:51:25;;;;;;;2.40;2.30;;;;;;;4.25;84.68;101967.62;5344227;26;20053;-68
2021/03/21 01:53:56;;;;;;;2.30;2.20;;;;;;;4.22;84.74;101961.59;5343105;26;20377;-68
2021/03/21 01:56:22;;;;;;;2.65;2.55;;;;;;;4.18;85.15;101947.75;5344733;26;20042;-68
2021/03/21 01:58:49;;;;;;;2.58;2.47;;;;;;;4.14;85.45;101938.25;5341726;26;20057;-68
2021/03/21 02:01:23;;;;;;;2.40;2.30;;;;;;;4.14;85.72;101923.50;5344492;26;20043;-68
2021/03/21 02:03:48;;;;;;;2.75;2.65;;;;;;;4.26;85.26;101924.31;5343818;26;20061;-68
2021/03/21 02:06:36;;;;;;;2.30;2.20;;;;;;;3.99;84.42;101882.06;5342227;26;20033;-68
2021/03/21 02:09:38;;;;;;;2.35;2.25;;;;;;;4.39;84.63;101919.03;5364171;26;20561;-68
2021/03/21 02:12:26;;;;;;;5.57;2.87;;;;;;;4.44;84.48;101925.94;5381119;26;20098;-68
2021/03/21 02:15:03;;;;;;;2.40;2.30;;;;;;;4.49;84.11;101924.16;5364699;26;20176;-68
2021/03/21 02:17:56;;;;;;;2.35;2.25;;;;;;;4.46;84.11;101934.59;5344244;26;20507;-68
2021/03/21 02:20:49;;;;;;;2.30;2.20;;;;;;;4.45;84.23;101918.13;5380235;26;20050;-68
2021/03/21 02:23:25;;;;;;;2.40;2.30;;;;;;;4.38;84.68;101912.09;5381197;26;20640;-68
2021/03/21 02:26:06;;;;;;;2.85;2.75;;;;;;;4.45;84.63;101907.72;5344080;26;20048;-68
2021/03/21 02:28:50;;;;;;;2.42;2.33;;;;;;;4.43;84.38;101917.28;5381099;26;20393;-68
2021/03/21 02:31:20;;;;;;;2.33;2.22;;;;;;;4.42;84.37;101896.50;5380071;26;20462;-68
2021/03/21 02:34:09;;;;;;;2.53;2.42;;;;;;;4.38;85.22;101917.28;5343156;26;20034;-67
2021/03/21 02:36:39;;;;;;;3.35;3.15;;;;;;;4.33;84.92;101906.09;5346267;26;20626;-68
2021/03/21 02:39:34;;;;;;;2.70;2.60;;;;;;;4.29;85.85;101917.38;5344139;26;20062;-68
2021/03/21 02:42:09;;;;;;;2.85;2.75;;;;;;;4.04;85.42;101853.44;5357247;26;20457;-68
2021/03/21 02:44:44;;;;;;;3.00;2.83;;;;;;;4.43;85.26;101908.59;5343939;26;20048;-68
2021/03/21 02:47:20;;;;;;;2.30;2.20;;;;;;;4.43;85.23;101882.59;5342259;26;20571;-68
2021/03/21 02:49:47;;;;;;;2.83;2.62;;;;;;;4.39;85.52;101880.03;5345177;26;20058;-67
2021/03/21 02:52:30;;;;;;;2.60;2.50;;;;;;;4.34;85.46;101867.94;5343349;26;20053;-68
2021/03/21 02:54:59;;;;;;;2.40;2.30;;;;;;;4.36;85.44;101867.06;5344487;26;20049;-67
2021/03/21 02:57:27;;;;;;;2.30;2.20;;;;;;;4.36;85.28;101867.06;5343471;26;20048;-67
2021/03/21 02:59:54;;;;;;;2.40;2.30;;;;;;;4.36;85.01;101869.66;5344059;26;20368;-68
2021/03/21 03:02:37;;;;;;;2.53;2.42;;;;;;;4.39;85.35;101893.03;5342891;26;20043;-68
2021/03/21 03:05:08;;;;;;;2.42;2.33;;;;;;;4.36;85.53;101869.66;5346450;26;20385;-67
2021/03/21 03:07:48;;;;;;;2.40;2.30;;;;;;;4.25;85.90;101868.00;5361118;26;20039;-68
2021/03/21 03:10:55;;;;;;;2.80;2.60;;;;;;;4.33;86.13;101861.00;5364622;26;20108;-68
2021/03/21 03:13:25;;;;;;;2.30;2.20;;;;;;;4.38;85.71;101865.31;5248592;27;20086;-68
2021/03/21 03:15:54;;;;;;;2.28;2.17;;;;;;;4.41;85.32;101867.03;5347849;26;20034;-68
2021/03/21 03:18:29;;;;;;;2.35;2.25;;;;;;;4.37;85.99;101875.72;5343300;26;20160;-67
2021/03/21 03:21:03;;;;;;;2.50;2.40;;;;;;;3.98;86.33;101816.22;5362223;26;20062;-68
2021/03/21 03:23:42;;;;;;;2.58;2.47;;;;;;;4.25;86.19;101863.69;5362822;26;20309;-67
2021/03/21 03:26:18;;;;;;;2.37;2.28;;;;;;;4.27;86.15;101861.06;5345650;26;20098;-68
2021/03/21 03:28:50;;;;;;;2.40;2.30;;;;;;;4.29;86.43;101868.00;5341844;26;20380;-68
2021/03/21 03:31:20;;;;;;;2.20;2.10;;;;;;;4.36;85.76;101866.22;5345072;26;20051;-68
2021/03/21 03:33:45;;;;;;;2.58;2.47;;;;;;;3.70;85.78;101770.56;5343075;26;20369;-68
2021/03/21 03:36:13;;;;;;;2.30;2.20;;;;;;;4.19;86.33;101858.53;5344529;26;20042;-68
2021/03/21 03:38:40;;;;;;;2.30;2.20;;;;;;;4.25;86.52;101868.00;5343566;26;20038;-68
2021/03/21 03:41:17;;;;;;;2.80;2.70;;;;;;;4.21;86.03;101867.19;5344176;26;20068;-68
2021/03/21 03:44:29;;;;;;;2.30;2.20;;;;;;;4.29;85.75;101869.72;5341865;26;20030;-68
2021/03/21 03:47:02;;;;;;;2.50;2.40;;;;;;;4.30;86.10;101859.31;5269707;27;20427;-68
2021/03/21 03:49:30;;;;;;;2.20;2.10;;;;;;;4.32;85.19;101880.94;5370858;26;20117;-68
2021/03/21 03:52:20;;;;;;;2.37;2.28;;;;;;;4.29;85.95;101861.91;5363893;26;20060;-68
2021/03/21 03:55:10;;;;;;;2.45;2.35;;;;;;;4.38;85.58;101865.31;5343533;26;20382;-68
2021/03/21 03:58:00;;;;;;;2.10;2.00;;;;;;;4.32;85.32;101870.56;5344753;26;20381;-68
2021/03/21 04:01:02;;;;;;;2.30;2.20;;;;;;;4.32;85.68;101870.56;5364333;26;20030;-68
2021/03/21 04:03:41;;;;;;;2.40;2.30;;;;;;;4.33;85.76;101858.41;5360876;26;20054;-68
2021/03/21 04:06:19;;;;;;;2.20;2.10;;;;;;;4.36;86.03;101869.66;5345591;26;20481;-68
2021/03/21 04:09:00;;;;;;;2.22;2.12;;;;;;;4.25;86.81;101858.50;5341932;26;20162;-68
2021/03/21 04:12:03;;;;;;;2.20;2.10;;;;;;;4.34;86.72;101863.63;5345023;26;20443;-67
2021/03/21 04:15:07;;;;;;;2.30;2.20;;;;;;;4.34;86.74;101855.81;5248793;27;20472;-68
2021/03/21 04:17:51;;;;;;;2.22;2.12;;;;;;;4.38;86.93;101843.66;5381303;26;20786;-68
2021/03/21 04:20:30;;;;;;;2.45;2.35;;;;;;;4.38;86.76;101844.53;5362349;26;20057;-68
2021/03/21 04:23:05;;;;;;;2.60;2.50;;;;;;;4.24;87.14;101846.38;5362406;26;20095;-68
2021/03/21 04:25:34;;;;;;;2.22;2.12;;;;;;;4.28;87.40;101850.66;5362646;26;20473;-68
2021/03/21 04:28:18;;;;;;;3.10;2.85;;;;;;;4.20;87.83;101842.91;5344073;26;20415;-68
2021/03/21 04:30:47;;;;;;;2.22;2.12;;;;;;;4.23;87.75;101844.66;5345377;26;20034;-68
2021/03/21 04:33:16;;;;;;;2.20;2.10;;;;;;;4.22;87.55;101853.31;5344083;26;20134;-68
2021/03/21 04:35:47;;;;;;;2.30;2.20;;;;;;;4.28;87.53;101848.06;5344324;26;20034;-68
2021/03/21 04:38:23;;;;;;;2.22;2.12;;;;;;;4.25;87.66;101839.44;5345559;26;20039;-68
2021/03/21 04:40:49;;;;;;;2.30;2.20;;;;;;;4.32;87.37;101849.75;5345863;26;20524;-68
2021/03/21 04:43:17;;;;;;;4.47;4.28;;;;;;;4.28;87.17;101837.66;5342072;26;20034;-68
2021/03/21 04:45:45;;;;;;;2.40;2.30;;;;;;;4.24;87.43;101838.56;5344536;26;20556;-67
2021/03/21 04:48:12;;;;;;;2.25;2.15;;;;;;;4.28;87.63;101848.06;5345679;26;20516;-67
2021/03/21 04:50:37;;;;;;;2.30;2.20;;;;;;;4.36;87.43;101838.47;5344876;26;20034;-68
2021/03/21 04:53:06;;;;;;;2.53;2.42;;;;;;;4.34;87.91;101840.22;5345086;26;20049;-67
2021/03/21 04:55:35;;;;;;;2.50;2.40;;;;;;;4.34;87.25;101839.38;5345109;26;20206;-68
2021/03/21 04:58:02;;;;;;;2.72;2.53;;;;;;;4.28;87.51;101842.88;5344319;26;20365;-68
2021/03/21 05:00:29;;;;;;;2.78;2.67;;;;;;;4.24;88.22;101843.78;5345174;26;20359;-68
2021/03/21 05:02:57;;;;;;;2.37;2.28;;;;;;;4.21;88.67;101836.00;5344490;26;20393;-68
2021/03/21 05:05:34;;;;;;;2.10;2.00;;;;;;;4.32;87.99;101835.91;5346266;26;20052;-68
2021/03/21 05:08:05;;;;;;;2.30;2.20;;;;;;;4.27;88.57;101824.69;5345933;26;20038;-68
2021/03/21 05:10:33;;;;;;;2.45;2.28;;;;;;;4.30;88.90;101830.72;5346449;26;20682;-68
2021/03/21 05:13:07;;;;;;;2.37;2.28;;;;;;;4.31;88.59;101822.06;5343898;26;20116;-68
2021/03/21 05:15:41;;;;;;;2.08;1.98;;;;;;;3.38;88.98;101678.19;5366114;26;20276;-68
2021/03/21 05:18:26;;;;;;;2.50;2.40;;;;;;;4.34;88.76;101827.22;5361988;26;20030;-68
2021/03/21 05:21:15;;;;;;;3.08;2.90;;;;;;;4.32;88.69;101828.12;5384364;26;20060;-68
2021/03/21 05:23:56;;;;;;;2.35;2.25;;;;;;;4.26;89.23;101818.62;5344593;26;20092;-68
2021/03/21 05:26:39;;;;;;;2.20;2.10;;;;;;;4.18;89.29;101807.44;5347828;26;20054;-68
2021/03/21 05:29:28;;;;;;;2.45;2.35;;;;;;;4.28;89.34;101836.81;5345206;26;20038;-68
2021/03/21 05:31:54;;;;;;;2.55;2.42;;;;;;;4.29;89.42;101834.22;5381455;26;20034;-68
2021/03/21 05:34:20;;;;;;;2.28;2.17;;;;;;;4.30;89.37;101827.28;5345333;26;20417;-67
2021/03/21 05:37:08;;;;;;;2.28;2.17;;;;;;;4.27;89.46;101820.37;5344917;26;20038;-67
2021/03/21 05:39:52;;;;;;;2.30;2.20;;;;;;;4.39;89.42;101827.22;5346394;26;20042;-67
2021/03/21 05:42:45;;;;;;;2.50;2.40;;;;;;;4.32;89.81;101828.12;5382043;26;20098;-67
2021/03/21 05:45:27;;;;;;;2.30;2.20;;;;;;;4.30;90.30;101827.28;5379670;26;20481;-67
2021/03/21 05:48:11;;;;;;;2.37;2.28;;;;;;;4.22;89.90;101810.88;5343734;26;20035;-66
2021/03/21 05:51:08;;;;;;;2.28;2.17;;;;;;;4.39;90.12;101817.66;5346770;26;20047;-66
2021/03/21 05:53:40;;;;;;;2.20;2.10;;;;;;;4.39;89.73;101819.41;5344672;26;20111;-66
2021/03/21 05:56:11;;;;;;;2.95;2.85;;;;;;;4.42;89.69;101815.91;5363757;26;20058;-66
2021/03/21 05:58:58;;;;;;;2.45;2.35;;;;;;;4.48;89.93;101813.25;5361149;26;20055;-66
2021/03/21 06:01:45;;;;;;;2.60;2.50;;;;;;;4.44;89.73;101816.78;5367306;26;20086;-66
2021/03/21 06:04:35;;;;;;;2.40;2.30;;;;;;;4.47;89.78;101816.72;5380425;26;20057;-66
2021/03/21 06:07:12;;;;;;;2.30;2.20;;;;;;;4.45;90.12;101808.06;5378385;26;20054;-66
2021/03/21 06:09:47;;;;;;;2.30;2.20;;;;;;;4.45;90.04;101798.56;5355177;26;20050;-66
2021/03/21 06:12:18;;;;;;;3.33;3.03;;;;;;;4.46;89.87;101789.87;5318174;26;20039;-66
2021/03/21 06:15:17;;;;;;;2.45;2.35;;;;;;;4.46;90.11;101809.81;5377325;26;20048;-67
2021/03/21 06:18:20;;;;;;;2.30;2.20;;;;;;;3.53;90.22;101661.66;5360292;26;20039;-67
2021/03/21 06:21:10;;;;;;;2.20;2.10;;;;;;;4.48;90.09;101827.13;5377492;26;20702;-66
2021/03/21 06:24:02;;;;;;;2.35;2.25;;;;;;;4.48;89.83;101813.25;5378667;26;20034;-66
2021/03/21 06:26:43;;;;;;;2.60;2.50;;;;;;;4.59;90.29;101824.41;5342842;26;20382;-66
2021/03/21 06:29:34;;;;;;;2.87;2.78;;;;;;;4.56;90.49;101832.25;5354485;26;20138;-66
2021/03/21 06:32:25;;;;;;;2.40;2.30;;;;;;;4.56;90.40;101832.25;5373985;26;20046;-66
2021/03/21 06:35:14;;;;;;;2.25;2.15;;;;;;;4.51;90.35;101827.09;5328550;26;20048;-66
2021/03/21 06:37:54;;;;;;;2.30;2.20;;;;;;;4.65;89.70;101837.37;5336497;26;20390;-66
2021/03/21 06:40:33;;;;;;;2.30;2.20;;;;;;;4.70;89.97;101822.56;5335900;26;20370;-66
2021/03/21 06:43:51;;;;;;;2.35;2.25;;;;;;;4.75;89.81;101820.81;5344536;26;20050;-66
2021/03/21 06:46:36;;;;;;;2.45;2.35;;;;;;;4.83;89.46;101830.25;5326547;26;20342;-67
2021/03/21 06:49:27;;;;;;;2.40;2.30;;;;;;;4.88;89.12;101834.53;5355886;26;20598;-66
2021/03/21 06:51:57;;;;;;;2.72;2.62;;;;;;;4.84;88.89;101830.25;5348866;26;20054;-67
2021/03/21 06:54:32;;;;;;;2.40;2.30;;;;;;;4.93;88.94;101824.06;5349102;26;20055;-66
2021/03/21 06:57:17;;;;;;;3.28;3.17;;;;;;;4.99;88.55;101814.50;5335274;26;20066;-67
2021/03/21 07:00:21;;;;;;;2.30;2.20;;;;;;;5.11;88.45;101812.59;5358809;26;20165;-68
2021/03/21 07:03:15;;;;;;;2.30;2.20;;;;;;;5.20;87.71;101828.97;5314005;26;20382;-66
2021/03/21 07:05:51;;;;;;;2.92;2.83;;;;;;;5.23;87.78;101827.22;5339344;26;20225;-66
2021/03/21 07:08:22;;;;;;;3.83;2.53;;;;;;;5.30;87.22;101834.09;5333408;26;20039;-66
2021/03/21 07:11:42;;;;;;;2.92;2.83;;;;;;;5.42;87.14;101825.28;5354418;26;20062;-65
2021/03/21 07:14:32;;;;;;;2.40;2.30;;;;;;;5.58;86.24;101840.66;5283601;27;20056;-66
2021/03/21 07:17:08;;;;;;;3.33;3.12;;;;;;;5.56;85.71;101845.03;5329528;26;20053;-66
2021/03/21 07:20:10;;;;;;;2.40;2.30;;;;;;;5.58;85.88;101853.69;5334693;26;20035;-68
2021/03/21 07:23:21;;;;;;;2.45;2.35;;;;;;;5.59;84.81;101850.22;5331089;26;20050;-68
2021/03/21 07:26:13;;;;;;;2.40;2.30;;;;;;;5.64;84.81;101844.09;5334774;26;20038;-67
2021/03/21 07:28:52;;;;;;;2.83;2.72;;;;;;;5.70;83.98;101841.41;5310948;26;20047;-69
2021/03/21 07:31:23;;;;;;;2.30;2.20;;;;;;;5.80;84.00;101838.62;5331621;26;20124;-66
2021/03/21 07:33:58;;;;;;;2.57;2.47;;;;;;;5.77;83.58;101837.81;5359728;26;20058;-67
2021/03/21 07:36:37;;;;;;;2.78;2.67;;;;;;;5.75;83.24;101850.87;5313430;26;20602;-68
2021/03/21 07:39:23;;;;;;;2.60;2.47;;;;;;;5.78;82.84;101842.16;5318940;26;20043;-65
2021/03/21 07:42:19;;;;;;;2.40;2.30;;;;;;;5.75;82.52;101840.44;5314043;26;20061;-65
2021/03/21 07:44:56;;;;;;;2.55;2.45;;;;;;;5.81;82.71;101844.69;5353625;26;20097;-67
2021/03/21 07:47:46;;;;;;;2.40;2.30;;;;;;;5.79;82.03;101859.47;5351569;26;20058;-67
2021/03/21 07:50:35;;;;;;;2.50;2.40;;;;;;;5.89;81.79;101863.69;5338049;26;20056;-65
2021/03/21 07:53:16;;;;;;;2.40;2.30;;;;;;;5.90;81.27;101856.75;5329829;26;20040;-71
2021/03/21 07:56:02;;;;;;;2.60;2.50;;;;;;;6.05;81.23;101858.28;5332268;26;20044;-69
2021/03/21 07:59:04;;;;;;;2.47;2.37;;;;;;;6.20;80.04;101865.91;5327878;26;20039;-68
2021/03/21 08:01:29;;;;;;;2.50;2.40;;;;;;;6.29;79.72;101873.56;5307169;26;20061;-68
2021/03/21 08:04:05;;;;;;;2.80;2.70;;;;;;;6.42;79.46;101883.81;5310509;26;20044;-68
2021/03/21 08:06:38;;;;;;;2.50;2.40;;;;;;;6.54;78.32;101879.25;5300492;26;20118;-67
2021/03/21 08:09:09;;;;;;;;;;;;;;;6.31;78.67;101871.78;5356009;26;20164;-66
2021/03/21 08:11:36;;;;;;;2.50;2.40;;;;;;;6.15;79.19;101862.47;5380963;26;20043;-67
2021/03/21 08:14:31;;;;;;;2.60;2.50;;;;;;;6.25;80.67;101861.44;5341938;26;20103;-67
2021/03/21 08:17:04;;;;;;;2.42;2.33;;;;;;;5.98;79.39;101816.69;5336979;26;20064;-71
2021/03/21 08:19:34;;;;;;;2.60;2.50;;;;;;;6.19;80.00;101866.75;5319531;26;20034;-69
2021/03/21 08:21:59;;;;;;;3.15;2.70;;;;;;;6.32;79.71;101862.25;5339438;26;20527;-71
2021/03/21 08:24:29;;;;;;;2.50;2.40;;;;;;;6.29;78.56;101857.91;5337664;26;20043;-70
2021/03/21 08:26:54;;;;;;;2.62;2.53;;;;;;;6.32;79.23;101865.69;5338436;26;20138;-71
2021/03/21 08:29:25;;;;;;;2.60;2.50;;;;;;;5.96;78.91;101800.22;5318320;26;20112;-72
2021/03/21 08:32:09;;;;;;;2.60;2.50;;;;;;;5.91;79.36;101825.47;5338829;26;20057;-69
2021/03/21 08:34:40;;;;;;;2.50;2.40;;;;;;;6.05;79.46;101868.72;5337332;26;20039;-70
2021/03/21 08:37:25;;;;;;;2.60;2.50;;;;;;;6.05;80.28;101873.94;5320793;26;20111;-70
2021/03/21 08:40:14;;;;;;;2.50;2.40;;;;;;;5.11;78.62;101691.19;5321542;26;20057;-71
2021/03/21 08:42:41;;;;;;;2.40;2.30;;;;;;;6.41;78.25;101869.03;5338984;26;20042;-72
2021/03/21 08:45:17;;;;;;;2.50;2.40;;;;;;;6.32;78.92;101875.28;5321015;26;20061;-70
2021/03/21 08:47:43;;;;;;;2.50;2.40;;;;;;;6.43;77.33;101885.53;5336303;26;20091;-70
2021/03/21 08:50:38;;;;;;;2.47;2.37;;;;;;;6.45;77.74;101884.59;5320290;26;20077;-70
2021/03/21 08:53:04;;;;;;;2.60;2.50;;;;;;;6.69;76.32;101882.50;5323302;26;20048;-70
2021/03/21 08:55:31;;;;;;;2.50;2.40;;;;;;;6.91;73.41;101875.16;5337149;26;20687;-70
2021/03/21 08:57:56;;;;;;;3.28;2.70;;;;;;;7.22;73.10;101883.28;5355941;26;20252;-71
2021/03/21 09:00:28;;;;;;;3.03;2.92;;;;;;;7.44;72.08;101882.84;5336705;26;20053;-70
2021/03/21 09:02:53;;;;;;;2.55;2.45;;;;;;;7.62;70.43;101882.50;5355031;26;20065;-71
2021/03/21 09:05:20;;;;;;;2.60;2.50;;;;;;;7.54;69.32;101868.72;5319808;26;20145;-71
2021/03/21 09:07:48;;;;;;;2.67;2.58;;;;;;;7.70;69.58;101875.34;5314281;26;20344;-71
2021/03/21 09:10:24;;;;;;;2.53;2.42;;;;;;;7.58;69.29;101881.69;5351999;26;20399;-72
2021/03/21 09:13:12;;;;;;;2.95;2.85;;;;;;;7.47;67.03;101880.19;5334470;26;20158;-66
2021/03/21 09:15:45;;;;;;;2.67;2.58;;;;;;;7.42;68.05;101866.34;5338363;26;20065;-67
2021/03/21 09:18:16;;;;;;;3.10;2.90;;;;;;;7.38;69.40;101868.19;5326689;26;20031;-67
2021/03/21 09:20:43;;;;;;;2.80;2.70;;;;;;;6.92;71.44;101867.28;5354386;26;20102;-66
2021/03/21 09:23:32;;;;;;;2.47;2.37;;;;;;;6.70;73.25;101869.44;5315928;26;20043;-67
2021/03/21 09:25:58;;;;;;;2.60;2.50;;;;;;;6.65;72.82;101866.03;5337445;26;20054;-67
2021/03/21 09:28:25;;;;;;;2.70;2.60;;;;;;;6.54;73.85;101874.03;5317741;26;20031;-66
2021/03/21 09:30:51;;;;;;;2.50;2.40;;;;;;;6.54;73.07;101873.19;5318650;26;20101;-66
2021/03/21 09:33:28;;;;;;;2.47;2.37;;;;;;;6.53;73.37;101866.22;5330626;26;20055;-66
2021/03/21 09:36:25;;;;;;;2.50;2.40;;;;;;;6.30;74.33;101880.50;5319644;26;20071;-67
2021/03/21 09:38:59;;;;;;;2.60;2.50;;;;;;;6.10;74.71;101892.97;5336339;26;20477;-67
2021/03/21 09:41:24;;;;;;;2.50;2.40;;;;;;;5.88;73.26;101897.59;5321177;26;20039;-66
2021/03/21 09:43:50;;;;;;;2.72;2.62;;;;;;;5.88;73.97;101902.81;5330421;26;20065;-67
2021/03/21 09:46:23;;;;;;;2.50;2.40;;;;;;;5.87;73.08;101896.72;5333095;26;20050;-66
2021/03/21 09:48:53;;;;;;;2.50;2.40;;;;;;;6.10;71.89;101901.66;5330772;26;20081;-66
2021/03/21 09:51:44;;;;;;;2.60;2.50;;;;;;;6.39;71.43;101898.63;5350988;26;20087;-67
2021/03/21 09:54:28;;;;;;;2.30;2.20;;;;;;;6.77;70.19;101912.75;5325069;26;20142;-67
2021/03/21 09:57:05;;;;;;;2.50;2.40;;;;;;;6.95;67.67;101905.53;5356293;26;20579;-67
2021/03/21 09:59:37;;;;;;;2.20;2.10;;;;;;;6.98;64.00;101897.66;5354727;26;20805;-66
2021/03/21 10:02:22;;;;;;;2.37;2.28;;;;;;;6.96;64.06;101915.09;5337610;26;20531;-67
2021/03/21 10:05:06;;;;;;;2.70;2.60;;;;;;;6.81;64.79;101908.37;5376973;26;20362;-66
2021/03/21 10:07:42;;;;;;;2.40;2.30;;;;;;;6.68;65.99;101904.25;5359176;26;20738;-65
2021/03/21 10:10:13;;;;;;;2.30;2.20;;;;;;;6.71;64.76;101902.44;5360532;26;20038;-67
2021/03/21 10:12:40;;;;;;;2.55;2.45;;;;;;;6.77;65.20;101896.25;5341609;26;20168;-66
2021/03/21 10:15:11;;;;;;;2.40;2.30;;;;;;;6.87;64.40;101905.66;5341503;26;20149;-67
2021/03/21 10:17:38;;;;;;;2.30;2.20;;;;;;;6.68;65.00;101892.06;5342099;26;20035;-67
2021/03/21 10:20:04;;;;;;;2.53;2.42;;;;;;;6.74;66.62;101889.34;5339366;26;20038;-66
2021/03/21 10:22:29;;;;;;;2.70;2.60;;;;;;;6.84;65.30;101887.44;5333978;26;20298;-67
2021/03/21 10:25:00;;;;;;;2.80;2.70;;;;;;;6.96;64.63;101883.75;5372594;26;20043;-66
2021/03/21 10:27:42;;;;;;;2.60;2.50;;;;;;;7.09;64.46;101890.47;5335471;26;20166;-66
2021/03/21 10:30:30;;;;;;;2.60;2.50;;;;;;;7.17;63.82;101883.34;5335762;26;20038;-67
2021/03/21 10:32:59;;;;;;;2.70;2.60;;;;;;;7.11;65.26;101891.28;5330227;26;20473;-67
2021/03/21 10:35:24;;;;;;;2.50;2.40;;;;;;;7.05;64.77;101891.41;5351644;26;20053;-66
2021/03/21 10:37:57;;;;;;;2.40;2.30;;;;;;;6.83;64.84;101875.28;5352467;26;20040;-67
2021/03/21 10:40:22;;;;;;;2.65;2.55;;;;;;;6.97;65.24;101891.53;5315747;26;20043;-67
2021/03/21 10:42:49;;;;;;;2.80;2.70;;;;;;;6.95;63.71;101895.94;5369610;26;20484;-67
2021/03/21 10:45:17;;;;;;;3.55;3.35;;;;;;;6.96;65.98;101897.66;5332287;26;20054;-69
2021/03/21 10:47:43;;;;;;;2.70;2.60;;;;;;;6.99;64.59;101908.03;5313290;26;20038;-67
2021/03/21 10:50:27;;;;;;;3.10;3.00;;;;;;;7.22;65.29;101903.28;5312261;26;20449;-65
2021/03/21 10:53:19;;;;;;;2.72;2.62;;;;;;;7.43;65.30;101895.03;5349906;26;20112;-67
2021/03/21 10:56:08;;;;;;;2.80;2.70;;;;;;;7.42;61.31;101895.94;5332812;26;20783;-65
2021/03/21 10:58:33;;;;;;;2.70;2.60;;;;;;;7.58;62.84;101901.72;5331228;26;20481;-66
2021/03/21 11:01:21;;;;;;;2.90;2.80;;;;;;;7.44;61.92;101912.44;5350659;26;20500;-66
2021/03/21 11:03:55;;;;;;;2.70;2.60;;;;;;;7.44;63.30;101909.84;5350359;26;20497;-66
2021/03/21 11:06:21;;;;;;;2.70;2.60;;;;;;;7.33;63.08;101915.25;5351900;26;20040;-66
2021/03/21 11:08:46;;;;;;;3.28;3.08;;;;;;;7.26;63.55;101911.06;5323701;26;20145;-66
2021/03/21 11:11:18;;;;;;;2.53;2.42;;;;;;;7.06;64.75;101932.31;5316695;26;20057;-67
2021/03/21 11:13:43;;;;;;;2.75;2.65;;;;;;;7.11;61.44;101932.22;5350637;26;20121;-67
2021/03/21 11:16:19;;;;;;;2.60;2.50;;;;;;;7.10;59.60;101913.09;5315906;26;20047;-67
2021/03/21 11:18:50;;;;;;;2.67;2.58;;;;;;;6.94;59.16;101909.88;5314620;26;20452;-66
2021/03/21 11:21:15;;;;;;;2.65;2.55;;;;;;;7.21;58.82;101935.53;5313397;26;20042;-66
2021/03/21 11:24:01;;;;;;;2.80;2.70;;;;;;;7.33;58.80;101928.31;5358158;26;20053;-66
2021/03/21 11:26:26;;;;;;;2.70;2.60;;;;;;;7.48;58.49;101921.94;5318992;26;20378;-66
2021/03/21 11:29:22;;;;;;;2.60;2.50;;;;;;;7.68;57.17;101928.53;5349303;26;20591;-67
2021/03/21 11:31:49;;;;;;;2.70;2.60;;;;;;;7.82;54.55;101909.94;5333656;26;20220;-67
2021/03/21 11:34:14;;;;;;;2.80;2.70;;;;;;;7.86;55.75;101920.31;5327708;26;20695;-67
2021/03/21 11:36:40;;;;;;;2.70;2.60;;;;;;;7.96;54.29;101916.59;5351849;26;20048;-67
2021/03/21 11:39:20;;;;;;;2.80;2.70;;;;;;;7.84;55.16;101915.97;5314391;26;20050;-67
2021/03/21 11:41:45;;;;;;;2.78;2.67;;;;;;;7.88;54.70;101912.44;5335171;26;20798;-67
2021/03/21 11:44:14;;;;;;;2.80;2.70;;;;;;;7.68;56.16;101892.81;5332475;26;20474;-67
2021/03/21 11:46:39;;;;;;;2.70;2.60;;;;;;;7.71;57.16;101920.63;5352235;26;20379;-65
2021/03/21 11:49:04;;;;;;;2.90;2.80;;;;;;;7.72;55.71;101911.91;5351797;26;20269;-66
2021/03/21 11:51:30;;;;;;;2.92;2.83;;;;;;;7.76;53.74;101924.00;5330350;26;20057;-69
2021/03/21 11:53:55;;;;;;;2.70;2.60;;;;;;;7.82;54.63;101913.44;5314435;26;20205;-68
2021/03/21 11:56:39;;;;;;;3.22;3.10;;;;;;;7.82;54.35;101907.31;5313717;26;20876;-68
2021/03/21 11:59:16;;;;;;;2.70;2.60;;;;;;;8.06;54.43;101913.75;5314971;26;20517;-67
2021/03/21 12:01:47;;;;;;;3.10;3.00;;;;;;;8.05;54.35;101910.28;5332310;26;20062;-66
2021/03/21 12:04:22;;;;;;;2.90;2.80;;;;;;;7.01;53.27;101722.72;5331691;26;20100;-66
2021/03/21 12:06:49;;;;;;;2.70;2.60;;;;;;;7.65;54.65;101902.44;5317177;26;20065;-66
2021/03/21 12:09:36;;;;;;;2.78;2.67;;;;;;;7.76;55.37;101909.19;5316150;26;20101;-67
2021/03/21 12:12:26;;;;;;;2.80;2.70;;;;;;;7.61;54.56;101891.19;5334666;26;20057;-67
2021/03/21 12:14:51;;;;;;;2.70;2.60;;;;;;;7.98;56.10;101900.87;5352342;26;20463;-67